sensor_id;sensor_type;location;lat;lon;timestamp;temperature;humidity
69009;SHT31;56065;52.472;13.380;2024-02-04T00:01:17;9.59;87.87
69009;SHT31;56065;52.472;13.380;2024-02-04T00:03:43;9.61;87.95
69009;SHT31;56065;52.472;13.380;2024-02-04T00:06:08;9.71;87.95
69009;SHT31;56065;52.472;13.380;2024-02-04T00:08:33;9.73;88.14
69009;SHT31;56065;52.472;13.380;2024-02-04T00:10:59;9.71;88.40
69009;SHT31;56065;52.472;13.380;2024-02-04T00:13:24;9.78;88.63
69009;SHT31;56065;52.472;13.380;2024-02-04T00:15:49;9.75;88.17
69009;SHT31;56065;52.472;13.380;2024-02-04T00:18:15;9.79;88.28
69009;SHT31;56065;52.472;13.380;2024-02-04T00:20:40;9.79;88.15
69009;SHT31;56065;52.472;13.380;2024-02-04T00:23:06;9.81;88.14
69009;SHT31;56065;52.472;13.380;2024-02-04T00:25:31;9.83;88.15
69009;SHT31;56065;52.472;13.380;2024-02-04T00:27:56;9.73;87.77
69009;SHT31;56065;52.472;13.380;2024-02-04T00:30:22;9.71;87.75
69009;SHT31;56065;52.472;13.380;2024-02-04T00:32:47;9.61;87.42
69009;SHT31;56065;52.472;13.380;2024-02-04T00:35:12;9.52;87.08
69009;SHT31;56065;52.472;13.380;2024-02-04T00:37:38;9.46;86.76
69009;SHT31;56065;52.472;13.380;2024-02-04T00:40:03;9.39;87.14
69009;SHT31;56065;52.472;13.380;2024-02-04T00:42:29;9.28;86.59
69009;SHT31;56065;52.472;13.380;2024-02-04T00:44:54;9.17;86.63
69009;SHT31;56065;52.472;13.380;2024-02-04T00:47:20;9.14;86.81
69009;SHT31;56065;52.472;13.380;2024-02-04T00:49:45;9.07;86.98
69009;SHT31;56065;52.472;13.380;2024-02-04T00:52:10;9.00;86.53
69009;SHT31;56065;52.472;13.380;2024-02-04T00:54:36;8.93;86.75
69009;SHT31;56065;52.472;13.380;2024-02-04T00:57:01;8.91;86.89
69009;SHT31;56065;52.472;13.380;2024-02-04T00:59:26;8.87;87.00
69009;SHT31;56065;52.472;13.380;2024-02-04T01:01:52;8.85;86.63
69009;SHT31;56065;52.472;13.380;2024-02-04T01:04:17;8.81;86.68
69009;SHT31;56065;52.472;13.380;2024-02-04T01:06:42;8.84;86.68
69009;SHT31;56065;52.472;13.380;2024-02-04T01:09:08;8.80;86.87
69009;SHT31;56065;52.472;13.380;2024-02-04T01:11:33;8.83;86.82
69009;SHT31;56065;52.472;13.380;2024-02-04T01:13:59;8.72;87.23
69009;SHT31;56065;52.472;13.380;2024-02-04T01:16:24;8.67;87.39
69009;SHT31;56065;52.472;13.380;2024-02-04T01:18:50;8.60;87.68
69009;SHT31;56065;52.472;13.380;2024-02-04T01:21:15;8.54;88.00
69009;SHT31;56065;52.472;13.380;2024-02-04T01:23:40;8.53;87.97
69009;SHT31;56065;52.472;13.380;2024-02-04T01:26:06;8.46;88.00
69009;SHT31;56065;52.472;13.380;2024-02-04T01:28:31;8.43;88.09
69009;SHT31;56065;52.472;13.380;2024-02-04T01:30:56;8.38;88.28
69009;SHT31;56065;52.472;13.380;2024-02-04T01:33:22;8.35;88.35
69009;SHT31;56065;52.472;13.380;2024-02-04T01:35:47;8.29;88.37
69009;SHT31;56065;52.472;13.380;2024-02-04T01:38:12;8.24;88.52
69009;SHT31;56065;52.472;13.380;2024-02-04T01:40:38;8.26;88.65
69009;SHT31;56065;52.472;13.380;2024-02-04T01:43:03;8.20;88.78
69009;SHT31;56065;52.472;13.380;2024-02-04T01:45:29;8.18;88.74
69009;SHT31;56065;52.472;13.380;2024-02-04T01:47:54;8.15;88.76
69009;SHT31;56065;52.472;13.380;2024-02-04T01:50:20;8.09;88.90
69009;SHT31;56065;52.472;13.380;2024-02-04T01:52:46;8.04;89.32
69009;SHT31;56065;52.472;13.380;2024-02-04T01:55:12;7.99;89.46
69009;SHT31;56065;52.472;13.380;2024-02-04T01:57:38;8.02;89.54
69009;SHT31;56065;52.472;13.380;2024-02-04T02:00:04;7.97;89.70
69009;SHT31;56065;52.472;13.380;2024-02-04T02:02:30;7.97;89.83
69009;SHT31;56065;52.472;13.380;2024-02-04T02:04:56;7.94;89.85
69009;SHT31;56065;52.472;13.380;2024-02-04T02:07:23;7.92;89.99
69009;SHT31;56065;52.472;13.380;2024-02-04T02:09:52;7.87;89.87
69009;SHT31;56065;52.472;13.380;2024-02-04T02:12:56;7.90;90.03
69009;SHT31;56065;52.472;13.380;2024-02-04T02:15:30;7.90;90.06
69009;SHT31;56065;52.472;13.380;2024-02-04T02:18:04;7.87;90.09
69009;SHT31;56065;52.472;13.380;2024-02-04T02:23:30;7.84;89.95
69009;SHT31;56065;52.472;13.380;2024-02-04T02:25:57;7.81;90.10
69009;SHT31;56065;52.472;13.380;2024-02-04T02:28:23;7.78;90.20
69009;SHT31;56065;52.472;13.380;2024-02-04T02:30:48;7.74;90.26
69009;SHT31;56065;52.472;13.380;2024-02-04T02:33:14;7.69;90.26
69009;SHT31;56065;52.472;13.380;2024-02-04T02:35:39;7.69;90.36
69009;SHT31;56065;52.472;13.380;2024-02-04T02:38:18;7.61;90.45
69009;SHT31;56065;52.472;13.380;2024-02-04T02:40:47;7.54;90.59
69009;SHT31;56065;52.472;13.380;2024-02-04T02:43:15;7.59;90.50
69009;SHT31;56065;52.472;13.380;2024-02-04T02:45:44;7.57;90.42
69009;SHT31;56065;52.472;13.380;2024-02-04T02:48:11;7.54;90.58
69009;SHT31;56065;52.472;13.380;2024-02-04T02:50:37;7.53;90.88
69009;SHT31;56065;52.472;13.380;2024-02-04T02:53:03;7.50;90.97
69009;SHT31;56065;52.472;13.380;2024-02-04T02:55:28;7.50;90.98
69009;SHT31;56065;52.472;13.380;2024-02-04T02:57:53;7.47;91.35
69009;SHT31;56065;52.472;13.380;2024-02-04T03:00:19;7.46;91.32
69009;SHT31;56065;52.472;13.380;2024-02-04T03:02:44;7.46;91.70
69009;SHT31;56065;52.472;13.380;2024-02-04T03:05:10;7.50;91.83
69009;SHT31;56065;52.472;13.380;2024-02-04T03:07:37;7.59;91.61
69009;SHT31;56065;52.472;13.380;2024-02-04T03:10:02;7.59;91.96
69009;SHT31;56065;52.472;13.380;2024-02-04T03:12:28;7.67;92.03
69009;SHT31;56065;52.472;13.380;2024-02-04T03:14:53;7.80;91.98
69009;SHT31;56065;52.472;13.380;2024-02-04T03:17:18;7.91;91.78
69009;SHT31;56065;52.472;13.380;2024-02-04T03:19:46;7.98;91.62
69009;SHT31;56065;52.472;13.380;2024-02-04T03:22:12;8.08;91.31
69009;SHT31;56065;52.472;13.380;2024-02-04T03:24:37;8.16;91.12
69009;SHT31;56065;52.472;13.380;2024-02-04T03:27:03;8.25;90.98
69009;SHT31;56065;52.472;13.380;2024-02-04T03:29:28;8.29;90.75
69009;SHT31;56065;52.472;13.380;2024-02-04T03:31:55;8.39;90.58
69009;SHT31;56065;52.472;13.380;2024-02-04T03:34:21;8.41;90.39
69009;SHT31;56065;52.472;13.380;2024-02-04T03:36:46;8.48;90.13
69009;SHT31;56065;52.472;13.380;2024-02-04T03:39:12;8.45;90.32
69009;SHT31;56065;52.472;13.380;2024-02-04T03:41:37;8.43;90.26
69009;SHT31;56065;52.472;13.380;2024-02-04T03:44:02;8.45;90.16
69009;SHT31;56065;52.472;13.380;2024-02-04T03:46:28;8.50;89.92
69009;SHT31;56065;52.472;13.380;2024-02-04T03:48:53;8.48;89.99
69009;SHT31;56065;52.472;13.380;2024-02-04T03:51:19;8.46;89.92
69009;SHT31;56065;52.472;13.380;2024-02-04T03:53:45;8.49;89.91
69009;SHT31;56065;52.472;13.380;2024-02-04T03:56:10;8.50;89.71
69009;SHT31;56065;52.472;13.380;2024-02-04T03:58:36;8.46;89.68
69009;SHT31;56065;52.472;13.380;2024-02-04T04:01:02;8.53;89.60
69009;SHT31;56065;52.472;13.380;2024-02-04T04:03:27;8.53;89.63
69009;SHT31;56065;52.472;13.380;2024-02-04T04:05:55;8.43;89.66
69009;SHT31;56065;52.472;13.380;2024-02-04T04:08:21;8.41;89.54
69009;SHT31;56065;52.472;13.380;2024-02-04T04:10:46;8.28;89.60
69009;SHT31;56065;52.472;13.380;2024-02-04T04:13:12;8.20;89.82
69009;SHT31;56065;52.472;13.380;2024-02-04T04:15:38;8.13;89.90
69009;SHT31;56065;52.472;13.380;2024-02-04T04:18:04;8.09;89.92
69009;SHT31;56065;52.472;13.380;2024-02-04T04:20:29;7.99;90.09
69009;SHT31;56065;52.472;13.380;2024-02-04T04:22:55;7.95;90.31
69009;SHT31;56065;52.472;13.380;2024-02-04T04:25:20;7.91;90.26
69009;SHT31;56065;52.472;13.380;2024-02-04T04:27:45;7.84;90.36
69009;SHT31;56065;52.472;13.380;2024-02-04T04:30:11;7.84;90.20
69009;SHT31;56065;52.472;13.380;2024-02-04T04:32:36;7.77;90.31
69009;SHT31;56065;52.472;13.380;2024-02-04T04:35:02;7.77;90.38
69009;SHT31;56065;52.472;13.380;2024-02-04T04:37:27;7.74;90.38
69009;SHT31;56065;52.472;13.380;2024-02-04T04:39:53;7.73;90.28
69009;SHT31;56065;52.472;13.380;2024-02-04T04:42:18;7.69;90.13
69009;SHT31;56065;52.472;13.380;2024-02-04T04:44:43;7.67;90.12
69009;SHT31;56065;52.472;13.380;2024-02-04T04:47:09;7.63;90.12
69009;SHT31;56065;52.472;13.380;2024-02-04T04:49:34;7.61;90.00
69009;SHT31;56065;52.472;13.380;2024-02-04T04:51:59;7.57;90.13
69009;SHT31;56065;52.472;13.380;2024-02-04T04:54:25;7.53;90.22
69009;SHT31;56065;52.472;13.380;2024-02-04T04:56:50;7.47;90.21
69009;SHT31;56065;52.472;13.380;2024-02-04T04:59:16;7.44;90.34
69009;SHT31;56065;52.472;13.380;2024-02-04T05:01:46;7.46;90.29
69009;SHT31;56065;52.472;13.380;2024-02-04T05:04:11;7.42;90.33
69009;SHT31;56065;52.472;13.380;2024-02-04T05:06:37;7.37;90.37
69009;SHT31;56065;52.472;13.380;2024-02-04T05:09:02;7.36;90.56
69009;SHT31;56065;52.472;13.380;2024-02-04T05:11:28;7.37;90.39
69009;SHT31;56065;52.472;13.380;2024-02-04T05:13:53;7.34;90.39
69009;SHT31;56065;52.472;13.380;2024-02-04T05:16:18;7.27;90.50
69009;SHT31;56065;52.472;13.380;2024-02-04T05:18:44;7.24;90.73
69009;SHT31;56065;52.472;13.380;2024-02-04T05:21:09;7.24;90.73
69009;SHT31;56065;52.472;13.380;2024-02-04T05:23:36;7.18;90.91
69009;SHT31;56065;52.472;13.380;2024-02-04T05:26:05;7.20;90.81
69009;SHT31;56065;52.472;13.380;2024-02-04T05:28:32;7.22;90.76
69009;SHT31;56065;52.472;13.380;2024-02-04T05:30:57;7.20;90.83
69009;SHT31;56065;52.472;13.380;2024-02-04T05:33:23;7.19;90.68
69009;SHT31;56065;52.472;13.380;2024-02-04T05:35:48;7.16;90.71
69009;SHT31;56065;52.472;13.380;2024-02-04T05:38:13;7.12;90.80
69009;SHT31;56065;52.472;13.380;2024-02-04T05:40:39;7.15;90.79
69009;SHT31;56065;52.472;13.380;2024-02-04T05:43:05;7.15;90.76
69009;SHT31;56065;52.472;13.380;2024-02-04T05:45:33;7.12;90.79
69009;SHT31;56065;52.472;13.380;2024-02-04T05:47:58;7.13;90.72
69009;SHT31;56065;52.472;13.380;2024-02-04T05:50:24;7.15;90.73
69009;SHT31;56065;52.472;13.380;2024-02-04T05:52:49;7.20;90.66
69009;SHT31;56065;52.472;13.380;2024-02-04T05:55:15;7.23;90.66
69009;SHT31;56065;52.472;13.380;2024-02-04T05:57:40;7.24;90.60
69009;SHT31;56065;52.472;13.380;2024-02-04T06:00:07;7.30;90.52
69009;SHT31;56065;52.472;13.380;2024-02-04T06:02:33;7.34;90.32
69009;SHT31;56065;52.472;13.380;2024-02-04T06:04:58;7.36;90.38
69009;SHT31;56065;52.472;13.380;2024-02-04T06:07:24;7.39;90.44
69009;SHT31;56065;52.472;13.380;2024-02-04T06:09:49;7.42;90.45
69009;SHT31;56065;52.472;13.380;2024-02-04T06:12:14;7.51;90.34
69009;SHT31;56065;52.472;13.380;2024-02-04T06:14:40;7.47;90.25
69009;SHT31;56065;52.472;13.380;2024-02-04T06:17:06;7.49;90.34
69009;SHT31;56065;52.472;13.380;2024-02-04T06:19:34;7.50;90.20
69009;SHT31;56065;52.472;13.380;2024-02-04T06:22:00;7.54;90.17
69009;SHT31;56065;52.472;13.380;2024-02-04T06:24:25;7.51;90.10
69009;SHT31;56065;52.472;13.380;2024-02-04T06:26:51;7.53;90.10
69009;SHT31;56065;52.472;13.380;2024-02-04T06:29:16;7.57;90.13
69009;SHT31;56065;52.472;13.380;2024-02-04T06:31:44;7.57;90.18
69009;SHT31;56065;52.472;13.380;2024-02-04T06:34:10;7.54;90.21
69009;SHT31;56065;52.472;13.380;2024-02-04T06:36:35;7.57;90.27
69009;SHT31;56065;52.472;13.380;2024-02-04T06:39:01;7.53;90.68
69009;SHT31;56065;52.472;13.380;2024-02-04T06:41:26;7.54;90.71
69009;SHT31;56065;52.472;13.380;2024-02-04T06:43:51;7.51;90.76
69009;SHT31;56065;52.472;13.380;2024-02-04T06:46:27;7.53;90.86
69009;SHT31;56065;52.472;13.380;2024-02-04T06:48:53;7.54;90.96
69009;SHT31;56065;52.472;13.380;2024-02-04T06:51:19;7.57;91.02
69009;SHT31;56065;52.472;13.380;2024-02-04T06:53:44;7.57;91.09
69009;SHT31;56065;52.472;13.380;2024-02-04T06:56:10;7.60;90.97
69009;SHT31;56065;52.472;13.380;2024-02-04T06:58:39;7.60;90.93
69009;SHT31;56065;52.472;13.380;2024-02-04T07:01:04;7.69;90.85
69009;SHT31;56065;52.472;13.380;2024-02-04T07:03:30;7.74;90.72
69009;SHT31;56065;52.472;13.380;2024-02-04T07:05:56;7.84;90.51
69009;SHT31;56065;52.472;13.380;2024-02-04T07:08:21;7.92;90.27
69009;SHT31;56065;52.472;13.380;2024-02-04T07:10:46;7.99;90.13
69009;SHT31;56065;52.472;13.380;2024-02-04T07:13:12;8.09;89.63
69009;SHT31;56065;52.472;13.380;2024-02-04T07:15:38;8.16;89.42
69009;SHT31;56065;52.472;13.380;2024-02-04T07:18:04;8.26;89.31
69009;SHT31;56065;52.472;13.380;2024-02-04T07:20:29;8.24;89.00
69009;SHT31;56065;52.472;13.380;2024-02-04T07:22:55;8.26;88.76
69009;SHT31;56065;52.472;13.380;2024-02-04T07:25:20;8.36;88.79
69009;SHT31;56065;52.472;13.380;2024-02-04T07:27:46;8.29;88.56
69009;SHT31;56065;52.472;13.380;2024-02-04T07:30:11;8.42;88.38
69009;SHT31;56065;52.472;13.380;2024-02-04T07:32:37;8.49;88.33
69009;SHT31;56065;52.472;13.380;2024-02-04T07:35:02;8.49;88.26
69009;SHT31;56065;52.472;13.380;2024-02-04T07:37:28;8.54;88.16
69009;SHT31;56065;52.472;13.380;2024-02-04T07:39:53;8.54;87.91
69009;SHT31;56065;52.472;13.380;2024-02-04T07:42:18;8.59;87.82
69009;SHT31;56065;52.472;13.380;2024-02-04T07:44:44;8.59;87.68
69009;SHT31;56065;52.472;13.380;2024-02-04T07:47:09;8.63;87.61
69009;SHT31;56065;52.472;13.380;2024-02-04T07:49:34;8.66;87.56
69009;SHT31;56065;52.472;13.380;2024-02-04T07:52:00;8.79;87.52
69009;SHT31;56065;52.472;13.380;2024-02-04T07:54:25;8.77;87.61
69009;SHT31;56065;52.472;13.380;2024-02-04T07:56:50;8.81;87.33
69009;SHT31;56065;52.472;13.380;2024-02-04T07:59:16;8.84;87.13
69009;SHT31;56065;52.472;13.380;2024-02-04T08:01:41;8.81;87.14
69009;SHT31;56065;52.472;13.380;2024-02-04T08:04:07;8.94;87.04
69009;SHT31;56065;52.472;13.380;2024-02-04T08:06:33;9.14;86.98
69009;SHT31;56065;52.472;13.380;2024-02-04T08:08:59;9.27;86.74
69009;SHT31;56065;52.472;13.380;2024-02-04T08:11:25;9.44;85.87
69009;SHT31;56065;52.472;13.380;2024-02-04T08:13:50;9.56;85.45
69009;SHT31;56065;52.472;13.380;2024-02-04T08:16:15;9.73;85.00
69009;SHT31;56065;52.472;13.380;2024-02-04T08:18:41;9.85;84.52
69009;SHT31;56065;52.472;13.380;2024-02-04T08:21:06;9.97;83.99
69009;SHT31;56065;52.472;13.380;2024-02-04T08:23:32;9.99;83.85
69009;SHT31;56065;52.472;13.380;2024-02-04T08:25:57;10.00;83.62
69009;SHT31;56065;52.472;13.380;2024-02-04T08:28:23;10.13;83.89
69009;SHT31;56065;52.472;13.380;2024-02-04T08:30:49;9.90;83.27
69009;SHT31;56065;52.472;13.380;2024-02-04T08:33:14;9.87;83.62
69009;SHT31;56065;52.472;13.380;2024-02-04T08:35:39;9.85;83.82
69009;SHT31;56065;52.472;13.380;2024-02-04T08:38:04;9.82;83.63
69009;SHT31;56065;52.472;13.380;2024-02-04T08:40:30;9.75;83.66
69009;SHT31;56065;52.472;13.380;2024-02-04T08:42:55;9.87;83.70
69009;SHT31;56065;52.472;13.380;2024-02-04T08:45:21;9.93;83.40
69009;SHT31;56065;52.472;13.380;2024-02-04T08:47:47;9.93;83.32
69009;SHT31;56065;52.472;13.380;2024-02-04T08:50:12;9.90;82.96
69009;SHT31;56065;52.472;13.380;2024-02-04T08:52:37;9.96;83.36
69009;SHT31;56065;52.472;13.380;2024-02-04T08:55:03;9.82;82.91
69009;SHT31;56065;52.472;13.380;2024-02-04T08:57:29;9.83;83.10
69009;SHT31;56065;52.472;13.380;2024-02-04T08:59:54;9.83;83.25
69009;SHT31;56065;52.472;13.380;2024-02-04T09:02:20;9.83;83.43
69009;SHT31;56065;52.472;13.380;2024-02-04T09:04:46;9.86;82.88
69009;SHT31;56065;52.472;13.380;2024-02-04T09:07:11;9.87;83.10
69009;SHT31;56065;52.472;13.380;2024-02-04T09:09:37;9.90;83.06
69009;SHT31;56065;52.472;13.380;2024-02-04T09:12:02;9.96;82.68
69009;SHT31;56065;52.472;13.380;2024-02-04T09:14:28;10.00;82.83
69009;SHT31;56065;52.472;13.380;2024-02-04T09:16:53;9.99;82.40
69009;SHT31;56065;52.472;13.380;2024-02-04T09:19:18;10.04;82.60
69009;SHT31;56065;52.472;13.380;2024-02-04T09:21:44;10.04;82.53
69009;SHT31;56065;52.472;13.380;2024-02-04T09:24:10;9.99;82.33
69009;SHT31;56065;52.472;13.380;2024-02-04T09:26:36;10.07;82.77
69009;SHT31;56065;52.472;13.380;2024-02-04T09:29:01;10.03;82.25
69009;SHT31;56065;52.472;13.380;2024-02-04T09:31:27;10.12;82.13
69009;SHT31;56065;52.472;13.380;2024-02-04T09:33:53;10.30;81.91
69009;SHT31;56065;52.472;13.380;2024-02-04T09:36:18;10.40;81.51
69009;SHT31;56065;52.472;13.380;2024-02-04T09:38:44;10.45;81.19
69009;SHT31;56065;52.472;13.380;2024-02-04T09:41:11;10.63;80.82
69009;SHT31;56065;52.472;13.380;2024-02-04T09:43:37;10.94;80.23
69009;SHT31;56065;52.472;13.380;2024-02-04T09:46:04;11.08;79.33
69009;SHT31;56065;52.472;13.380;2024-02-04T09:48:33;11.39;78.01
69009;SHT31;56065;52.472;13.380;2024-02-04T09:50:58;11.78;77.90
69009;SHT31;56065;52.472;13.380;2024-02-04T09:53:32;11.90;76.56
69009;SHT31;56065;52.472;13.380;2024-02-04T09:56:04;12.17;76.61
69009;SHT31;56065;52.472;13.380;2024-02-04T09:58:32;12.15;76.16
69009;SHT31;56065;52.472;13.380;2024-02-04T10:00:59;12.10;75.60
69009;SHT31;56065;52.472;13.380;2024-02-04T10:03:25;12.20;75.66
69009;SHT31;56065;52.472;13.380;2024-02-04T10:05:51;12.18;75.81
69009;SHT31;56065;52.472;13.380;2024-02-04T10:08:16;11.85;75.46
69009;SHT31;56065;52.472;13.380;2024-02-04T10:10:42;11.73;75.95
69009;SHT31;56065;52.472;13.380;2024-02-04T10:13:10;11.54;75.69
69009;SHT31;56065;52.472;13.380;2024-02-04T10:15:36;11.70;75.96
69009;SHT31;56065;52.472;13.380;2024-02-04T10:18:05;12.02;75.43
69009;SHT31;56065;52.472;13.380;2024-02-04T10:20:31;12.14;74.81
69009;SHT31;56065;52.472;13.380;2024-02-04T10:22:57;12.31;74.37
69009;SHT31;56065;52.472;13.380;2024-02-04T10:25:23;12.59;73.68
69009;SHT31;56065;52.472;13.380;2024-02-04T10:27:48;12.75;73.34
69009;SHT31;56065;52.472;13.380;2024-02-04T10:30:14;12.93;73.33
69009;SHT31;56065;52.472;13.380;2024-02-04T10:32:41;12.67;73.13
69009;SHT31;56065;52.472;13.380;2024-02-04T10:35:07;12.56;73.11
69009;SHT31;56065;52.472;13.380;2024-02-04T10:37:33;12.41;73.45
69009;SHT31;56065;52.472;13.380;2024-02-04T10:39:58;12.36;73.68
69009;SHT31;56065;52.472;13.380;2024-02-04T10:42:25;12.29;74.09
69009;SHT31;56065;52.472;13.380;2024-02-04T10:44:52;12.04;73.90
69009;SHT31;56065;52.472;13.380;2024-02-04T10:47:22;11.97;74.41
69009;SHT31;56065;52.472;13.380;2024-02-04T10:49:52;12.04;74.95
69009;SHT31;56065;52.472;13.380;2024-02-04T10:52:22;11.91;74.42
69009;SHT31;56065;52.472;13.380;2024-02-04T10:54:49;11.66;74.89
69009;SHT31;56065;52.472;13.380;2024-02-04T10:57:17;11.71;75.46
69009;SHT31;56065;52.472;13.380;2024-02-04T10:59:46;11.75;75.58
69009;SHT31;56065;52.472;13.380;2024-02-04T11:02:13;11.78;74.79
69009;SHT31;56065;52.472;13.380;2024-02-04T11:04:42;11.85;74.98
69009;SHT31;56065;52.472;13.380;2024-02-04T11:07:08;11.73;74.66
69009;SHT31;56065;52.472;13.380;2024-02-04T11:09:36;11.93;74.76
69009;SHT31;56065;52.472;13.380;2024-02-04T11:12:05;11.84;74.44
69009;SHT31;56065;52.472;13.380;2024-02-04T11:14:32;11.78;74.51
69009;SHT31;56065;52.472;13.380;2024-02-04T11:22:53;11.75;74.92
69009;SHT31;56065;52.472;13.380;2024-02-04T11:25:43;11.74;74.48
69009;SHT31;56065;52.472;13.380;2024-02-04T11:28:15;11.66;74.32
69009;SHT31;56065;52.472;13.380;2024-02-04T11:30:42;11.69;74.81
69009;SHT31;56065;52.472;13.380;2024-02-04T11:33:10;11.75;74.76
69009;SHT31;56065;52.472;13.380;2024-02-04T11:35:36;11.77;75.03
69009;SHT31;56065;52.472;13.380;2024-02-04T11:38:02;11.59;74.54
69009;SHT31;56065;52.472;13.380;2024-02-04T11:40:34;11.74;74.55
69009;SHT31;56065;52.472;13.380;2024-02-04T11:43:14;11.53;74.45
69009;SHT31;56065;52.472;13.380;2024-02-04T11:45:40;11.50;74.68
69009;SHT31;56065;52.472;13.380;2024-02-04T11:48:07;11.69;74.67
69009;SHT31;56065;52.472;13.380;2024-02-04T11:50:33;11.85;74.49
69009;SHT31;56065;52.472;13.380;2024-02-04T11:53:06;11.80;73.73
69009;SHT31;56065;52.472;13.380;2024-02-04T11:55:33;11.74;74.14
69009;SHT31;56065;52.472;13.380;2024-02-04T11:57:59;12.08;74.19
69009;SHT31;56065;52.472;13.380;2024-02-04T12:00:25;12.17;73.53
69009;SHT31;56065;52.472;13.380;2024-02-04T12:03:03;12.39;73.19
69009;SHT31;56065;52.472;13.380;2024-02-04T12:05:31;12.53;73.32
69009;SHT31;56065;52.472;13.380;2024-02-04T12:07:59;12.41;73.04
69009;SHT31;56065;52.472;13.380;2024-02-04T12:10:26;12.48;72.86
69009;SHT31;56065;52.472;13.380;2024-02-04T12:12:52;12.31;73.19
69009;SHT31;56065;52.472;13.380;2024-02-04T12:15:17;12.34;73.34
69009;SHT31;56065;52.472;13.380;2024-02-04T12:17:43;12.25;73.28
69009;SHT31;56065;52.472;13.380;2024-02-04T12:20:09;12.06;72.97
69009;SHT31;56065;52.472;13.380;2024-02-04T12:22:35;11.98;73.03
69009;SHT31;56065;52.472;13.380;2024-02-04T12:25:02;11.88;73.48
69009;SHT31;56065;52.472;13.380;2024-02-04T12:27:28;11.60;73.09
69009;SHT31;56065;52.472;13.380;2024-02-04T12:29:54;11.52;73.77
69009;SHT31;56065;52.472;13.380;2024-02-04T12:32:19;11.39;74.08
69009;SHT31;56065;52.472;13.380;2024-02-04T12:34:48;11.33;74.59
69009;SHT31;56065;52.472;13.380;2024-02-04T12:37:14;11.16;74.42
69009;SHT31;56065;52.472;13.380;2024-02-04T12:39:39;11.13;74.65
69009;SHT31;56065;52.472;13.380;2024-02-04T12:42:05;11.09;74.85
69009;SHT31;56065;52.472;13.380;2024-02-04T12:44:31;11.09;74.67
69009;SHT31;56065;52.472;13.380;2024-02-04T12:46:56;11.16;74.93
69009;SHT31;56065;52.472;13.380;2024-02-04T12:49:22;11.03;74.39
69009;SHT31;56065;52.472;13.380;2024-02-04T12:51:48;10.92;74.47
69009;SHT31;56065;52.472;13.380;2024-02-04T12:54:13;10.86;74.81
69009;SHT31;56065;52.472;13.380;2024-02-04T12:56:50;10.88;74.61
69009;SHT31;56065;52.472;13.380;2024-02-04T12:59:28;10.94;74.57
69009;SHT31;56065;52.472;13.380;2024-02-04T13:01:56;10.91;74.42
69009;SHT31;56065;52.472;13.380;2024-02-04T13:04:22;10.94;74.21
69009;SHT31;56065;52.472;13.380;2024-02-04T13:06:47;10.96;74.50
69009;SHT31;56065;52.472;13.380;2024-02-04T13:09:16;10.88;74.53
69009;SHT31;56065;52.472;13.380;2024-02-04T13:11:42;10.79;74.36
69009;SHT31;56065;52.472;13.380;2024-02-04T13:14:07;10.79;74.57
69009;SHT31;56065;52.472;13.380;2024-02-04T13:16:33;10.82;74.60
69009;SHT31;56065;52.472;13.380;2024-02-04T13:19:01;10.89;74.68
69009;SHT31;56065;52.472;13.380;2024-02-04T13:21:26;10.81;74.72
69009;SHT31;56065;52.472;13.380;2024-02-04T13:23:52;10.88;74.91
69009;SHT31;56065;52.472;13.380;2024-02-04T13:26:17;10.79;74.61
69009;SHT31;56065;52.472;13.380;2024-02-04T13:28:43;10.69;74.95
69009;SHT31;56065;52.472;13.380;2024-02-04T13:31:08;10.74;75.10
69009;SHT31;56065;52.472;13.380;2024-02-04T13:33:33;10.67;75.04
69009;SHT31;56065;52.472;13.380;2024-02-04T13:35:59;10.75;75.15
69009;SHT31;56065;52.472;13.380;2024-02-04T13:38:24;10.76;75.31
69009;SHT31;56065;52.472;13.380;2024-02-04T13:40:50;10.65;75.26
69009;SHT31;56065;52.472;13.380;2024-02-04T13:43:15;10.74;75.86
69009;SHT31;56065;52.472;13.380;2024-02-04T13:45:41;10.71;75.38
69009;SHT31;56065;52.472;13.380;2024-02-04T13:48:06;10.72;75.55
69009;SHT31;56065;52.472;13.380;2024-02-04T13:50:32;10.75;75.58
69009;SHT31;56065;52.472;13.380;2024-02-04T13:52:57;10.81;75.66
69009;SHT31;56065;52.472;13.380;2024-02-04T13:55:24;10.68;75.55
69009;SHT31;56065;52.472;13.380;2024-02-04T13:57:50;10.74;75.41
69009;SHT31;56065;52.472;13.380;2024-02-04T14:00:15;10.60;75.68
69009;SHT31;56065;52.472;13.380;2024-02-04T14:02:43;10.67;75.79
69009;SHT31;56065;52.472;13.380;2024-02-04T14:05:08;10.65;75.85
69009;SHT31;56065;52.472;13.380;2024-02-04T14:07:34;10.65;75.99
69009;SHT31;56065;52.472;13.380;2024-02-04T14:09:59;10.64;76.25
69009;SHT31;56065;52.472;13.380;2024-02-04T14:12:24;10.58;76.58
69009;SHT31;56065;52.472;13.380;2024-02-04T14:14:50;10.55;76.78
69009;SHT31;56065;52.472;13.380;2024-02-04T14:17:15;10.53;76.95
69009;SHT31;56065;52.472;13.380;2024-02-04T14:19:41;10.58;76.58
69009;SHT31;56065;52.472;13.380;2024-02-04T14:22:06;10.64;76.49
69009;SHT31;56065;52.472;13.380;2024-02-04T14:24:31;10.64;76.95
69009;SHT31;56065;52.472;13.380;2024-02-04T14:26:57;10.58;76.64
69009;SHT31;56065;52.472;13.380;2024-02-04T14:29:26;10.55;76.95
69009;SHT31;56065;52.472;13.380;2024-02-04T14:31:52;10.57;76.92
69009;SHT31;56065;52.472;13.380;2024-02-04T14:34:17;10.60;76.82
69009;SHT31;56065;52.472;13.380;2024-02-04T14:36:42;10.61;76.91
69009;SHT31;56065;52.472;13.380;2024-02-04T14:39:08;10.54;77.05
69009;SHT31;56065;52.472;13.380;2024-02-04T14:41:37;10.55;77.10
69009;SHT31;56065;52.472;13.380;2024-02-04T14:44:02;10.51;77.19
69009;SHT31;56065;52.472;13.380;2024-02-04T14:46:28;10.51;77.22
69009;SHT31;56065;52.472;13.380;2024-02-04T14:48:53;10.47;77.26
69009;SHT31;56065;52.472;13.380;2024-02-04T14:51:19;10.40;77.37
69009;SHT31;56065;52.472;13.380;2024-02-04T14:53:44;10.36;77.44
69009;SHT31;56065;52.472;13.380;2024-02-04T14:56:10;10.37;77.34
69009;SHT31;56065;52.472;13.380;2024-02-04T14:58:36;10.37;77.52
69009;SHT31;56065;52.472;13.380;2024-02-04T15:01:02;10.33;77.48
69009;SHT31;56065;52.472;13.380;2024-02-04T15:03:27;10.37;77.45
69009;SHT31;56065;52.472;13.380;2024-02-04T15:05:53;10.38;77.43
69009;SHT31;56065;52.472;13.380;2024-02-04T15:08:18;10.47;77.38
69009;SHT31;56065;52.472;13.380;2024-02-04T15:10:44;10.50;77.25
69009;SHT31;56065;52.472;13.380;2024-02-04T15:13:09;10.43;77.34
69009;SHT31;56065;52.472;13.380;2024-02-04T15:15:35;10.47;77.35
69009;SHT31;56065;52.472;13.380;2024-02-04T15:18:00;10.37;77.48
69009;SHT31;56065;52.472;13.380;2024-02-04T15:20:26;10.34;77.35
69009;SHT31;56065;52.472;13.380;2024-02-04T15:22:52;10.38;77.47
69009;SHT31;56065;52.472;13.380;2024-02-04T15:25:17;10.38;77.44
69009;SHT31;56065;52.472;13.380;2024-02-04T15:27:44;10.40;77.31